createdAt,value
2022-10-31T00:02:05.642Z,42.3
2022-10-31T00:08:30.210Z,42.35
2022-10-31T00:15:04.396Z,42.38
2022-10-31T00:21:36.357Z,42.35
2022-10-31T00:28:14.719Z,42.4
2022-10-31T00:34:38.742Z,42.32
2022-10-31T00:41:03.323Z,42.24
2022-10-31T00:47:28.786Z,42.19
2022-10-31T00:53:52.471Z,42.06
2022-10-31T01:00:18.722Z,42.01
2022-10-31T01:06:40.645Z,42.13
2022-10-31T01:19:51.355Z,42.3
2022-10-31T01:26:25.105Z,42.12
2022-10-31T01:33:06.761Z,42.09
2022-10-31T01:39:37.596Z,42.11
2022-10-31T01:46:16.251Z,42.21
2022-10-31T01:53:24.280Z,42
2022-10-31T02:00:23.499Z,42.11
2022-10-31T02:06:54.740Z,42.16
2022-10-31T02:13:40.691Z,42.17
2022-10-31T02:20:13.204Z,42.21
2022-10-31T02:27:26.427Z,42.18
2022-10-31T02:34:34.458Z,42.24
2022-10-31T02:41:48.788Z,42.16
2022-10-31T02:48:58.720Z,42.18
2022-10-31T02:55:46.347Z,42.26
2022-10-31T03:02:43.799Z,42.14
2022-10-31T03:09:48.493Z,42.18
2022-10-31T03:16:49.820Z,42.19
2022-10-31T03:23:57.287Z,42.22
2022-10-31T03:30:44.758Z,42.15
2022-10-31T03:37:33.813Z,42.15
2022-10-31T03:44:21.305Z,42.04
2022-10-31T03:50:57.382Z,42.1
2022-10-31T03:58:03.204Z,41.81
2022-10-31T04:04:56.847Z,42.04
2022-10-31T04:11:41.921Z,42.17
2022-10-31T04:18:27.450Z,42.1
2022-10-31T04:24:58.310Z,42.01
2022-10-31T04:31:25.681Z,42.13
2022-10-31T04:37:46.512Z,42.12
2022-10-31T04:44:11.506Z,42.02
2022-10-31T04:50:37.275Z,42.05
2022-10-31T04:57:17.465Z,41.91
2022-10-31T05:03:50.253Z,42.11
2022-10-31T05:10:19.756Z,42.19
2022-10-31T05:16:50.427Z,41.96
2022-10-31T05:23:21.733Z,42.21
2022-10-31T05:29:48.520Z,41.76
2022-10-31T05:36:19.696Z,42.04
2022-10-31T05:42:50.419Z,42.12
2022-10-31T05:49:14.436Z,42.05
2022-10-31T05:55:45.304Z,42.18
2022-10-31T06:02:14.880Z,42.16
2022-10-31T06:08:49.312Z,42.11
2022-10-31T06:15:24.316Z,42.17
2022-10-31T06:21:53.301Z,42.16
2022-10-31T06:28:18.518Z,42.19
2022-10-31T06:34:41.824Z,42.11
2022-10-31T06:41:06.846Z,42.14
2022-10-31T06:47:31.921Z,42.08
2022-10-31T06:53:54.881Z,42.09
2022-10-31T07:00:25.009Z,42.08
2022-10-31T07:06:54.859Z,41.97
2022-10-31T07:13:25.496Z,41.98
2022-10-31T07:19:58.057Z,41.91
2022-10-31T07:26:34.872Z,41.71
2022-10-31T07:32:55.786Z,41.97
2022-10-31T07:39:23.566Z,41.41
2022-10-31T07:45:56.960Z,41.99
2022-10-31T07:52:30.474Z,42.09
2022-10-31T07:58:59.546Z,41.95
2022-10-31T08:05:38.889Z,41.45
2022-10-31T08:12:06.589Z,41.57
2022-10-31T08:18:32.790Z,41.34
2022-10-31T08:25:07.527Z,41.69
2022-10-31T08:31:43.745Z,41.92
2022-10-31T08:38:14.444Z,41.69
2022-10-31T08:44:50.149Z,41.8
2022-10-31T08:51:22.948Z,41.82
2022-10-31T08:57:52.493Z,41.6
2022-10-31T09:04:27.693Z,41.63
2022-10-31T09:10:55.226Z,41.66
2022-10-31T09:17:34.950Z,41.61
2022-10-31T09:24:00.932Z,41.63
2022-10-31T09:30:32.855Z,41.59
2022-10-31T09:37:06.471Z,41.69
2022-10-31T09:43:50.469Z,41.75
2022-10-31T09:50:53.646Z,41.92
2022-10-31T09:57:55.595Z,41.93
2022-10-31T10:04:53.468Z,41.87
2022-10-31T10:11:50.974Z,41.83
2022-10-31T10:18:51.070Z,42.01
2022-10-31T10:25:52.599Z,41.91
2022-10-31T10:33:03.936Z,41.9
2022-10-31T10:40:11.315Z,41.95
2022-10-31T10:46:50.485Z,41.89
2022-10-31T10:54:10.631Z,41.84
2022-10-31T11:00:54.300Z,41.89
2022-10-31T11:07:41.538Z,41.83
2022-10-31T11:14:27.583Z,41.79
2022-10-31T11:21:24.995Z,41.76
2022-10-31T11:28:36.011Z,41.75
2022-10-31T11:35:40.913Z,41.79
2022-10-31T11:42:57.502Z,41.73
2022-10-31T11:50:07.706Z,41.37
2022-10-31T11:57:25.174Z,41.34
2022-10-31T12:04:38.991Z,41.45
2022-10-31T12:11:45.890Z,41.45
2022-10-31T12:18:43.714Z,41.47
2022-10-31T12:25:45.099Z,41.59
2022-10-31T12:32:51.020Z,41.65
2022-10-31T12:39:56.968Z,41.5
2022-10-31T12:46:58.597Z,41.43
2022-10-31T12:54:00.626Z,41.71
2022-10-31T13:01:05.065Z,41.65
2022-10-31T13:08:19.027Z,41.73
2022-10-31T13:15:33.072Z,41.72
2022-10-31T13:22:42.646Z,41.68
2022-10-31T13:29:42.169Z,41.68
2022-10-31T13:36:39.078Z,41.58
2022-10-31T13:43:51.109Z,41.68
2022-10-31T13:50:48.958Z,41.48
2022-10-31T13:57:35.384Z,41.67
2022-10-31T14:04:34.420Z,41.59
2022-10-31T14:11:37.836Z,41.52
2022-10-31T14:18:34.620Z,41.56
2022-10-31T14:25:16.749Z,41.8
2022-10-31T14:32:18.645Z,41.92
2022-10-31T14:39:19.060Z,41.89
2022-10-31T14:46:19.085Z,41.84
2022-10-31T14:53:13.782Z,41.9
2022-10-31T15:00:04.741Z,41.79
2022-10-31T15:06:59.703Z,41.83
2022-10-31T15:13:57.772Z,41.83
2022-10-31T15:20:39.089Z,41.89
2022-10-31T15:27:23.102Z,41.87
2022-10-31T15:34:19.166Z,41.83
2022-10-31T15:41:09.645Z,41.72
2022-10-31T15:47:49.688Z,41.77
2022-10-31T15:54:57.967Z,41.86
2022-10-31T16:01:39.833Z,41.92
2022-10-31T16:08:29.006Z,41.93
2022-10-31T16:15:13.580Z,41.94
2022-10-31T16:22:07.829Z,41.86
2022-10-31T16:29:06.399Z,41.69
2022-10-31T16:36:09.769Z,41.8
2022-10-31T16:42:47.931Z,41.67
2022-10-31T16:49:35.128Z,41.73
2022-10-31T16:56:10.770Z,41.71
2022-10-31T17:02:56.737Z,41.68
2022-10-31T17:09:30.765Z,41.75
2022-10-31T17:16:12.134Z,41.86
2022-10-31T17:22:52.518Z,41.93
2022-10-31T17:29:16.820Z,41.99
2022-10-31T17:35:51.691Z,41.98
2022-10-31T17:42:22.752Z,42.14
2022-10-31T17:48:51.182Z,42.12
2022-10-31T17:55:17.677Z,42.14
2022-10-31T18:01:54.888Z,42.2
2022-10-31T18:08:26.703Z,42.3
2022-10-31T18:14:59.680Z,42.16
2022-10-31T18:21:27.760Z,42.06
2022-10-31T18:27:51.169Z,42.19
2022-10-31T18:34:16.775Z,42.22
2022-10-31T18:40:48.751Z,42.25
2022-10-31T18:47:17.242Z,42.31
2022-10-31T18:53:53.299Z,42.2
2022-10-31T19:00:24.122Z,42.18
2022-10-31T19:07:04.766Z,42.23
2022-10-31T19:13:43.792Z,42.08
2022-10-31T19:20:08.689Z,42.2
2022-10-31T19:26:35.828Z,42.22
2022-10-31T19:33:01.198Z,42.21
2022-10-31T19:39:44.401Z,42.24
2022-10-31T19:46:22.529Z,42.26
2022-10-31T19:52:53.263Z,42.18
2022-10-31T19:59:22.767Z,42.29
2022-10-31T20:05:54.374Z,42.18
2022-10-31T20:12:20.724Z,42.13
2022-10-31T20:18:53.105Z,42.02
2022-10-31T20:25:16.094Z,42.12
2022-10-31T20:31:48.867Z,42.06
2022-10-31T20:38:12.176Z,41.99
2022-10-31T20:44:37.413Z,42.01
2022-10-31T20:51:11.797Z,42.06
2022-10-31T20:57:40.923Z,41.8
2022-10-31T21:04:07.623Z,42.02
2022-10-31T21:10:36.773Z,41.92
2022-10-31T21:17:12.239Z,42.02
2022-10-31T21:23:43.979Z,42.08
2022-10-31T21:30:09.231Z,42.1
2022-10-31T21:36:32.926Z,42.06
2022-10-31T21:42:59.669Z,42.04
2022-10-31T21:49:27.967Z,42.15
2022-10-31T21:55:58.773Z,42.16
2022-10-31T22:02:33.609Z,42.12
2022-10-31T22:09:02.826Z,42.05
2022-10-31T22:15:35.809Z,42.11
2022-10-31T22:22:05.571Z,42.08
2022-10-31T22:28:28.788Z,42.12
2022-10-31T22:34:59.307Z,42.05
2022-10-31T22:41:37.234Z,41.96
2022-10-31T22:47:59.801Z,42.01
2022-10-31T22:54:23.977Z,42.12
2022-10-31T23:00:47.354Z,41.99
2022-10-31T23:07:15.751Z,41.9
2022-10-31T23:13:50.742Z,41.66
2022-10-31T23:20:27.404Z,41.94
2022-10-31T23:26:58.859Z,41.91
2022-10-31T23:33:33.841Z,41.97
2022-10-31T23:40:02.485Z,42.03
2022-10-31T23:46:34.884Z,42.05
2022-10-31T23:52:58.823Z,42.1
2022-10-31T23:59:26.491Z,42.13
